Time;durP1;ratioP1;P1;durP2;ratioP2;P2;SDS_P1;SDS_P2;PMS_P1;PMS_P2;Temp;Humidity;BMP_temperature;BMP_pressure;BME280_temperature;BME280_humidity;BME280_pressure;Samples;Min_cycle;Max_cycle;Signal;HPM_P1;HPM_P2
2022/10/18 00:00:31;;;;;;;9.07;5.03;;;;;;;10.33;100.00;97662.66;4991374;28;20113;-66
2022/10/18 00:02:56;;;;;;;12.27;5.28;;;;;;;10.52;100.00;97657.41;4992978;28;20030;-66
2022/10/18 00:05:22;;;;;;;8.20;5.43;;;;;;;10.52;100.00;97662.09;4991278;28;20030;-67
2022/10/18 00:07:47;;;;;;;7.45;5.03;;;;;;;10.56;100.00;97656.72;4991242;28;20030;-66
2022/10/18 00:10:13;;;;;;;13.18;5.47;;;;;;;10.62;100.00;97650.66;4992596;28;20065;-66
2022/10/18 00:12:38;;;;;;;7.80;5.18;;;;;;;10.70;100.00;97652.50;4991346;28;20093;-66
2022/10/18 00:15:06;;;;;;;9.93;5.05;;;;;;;10.64;100.00;97653.88;4992551;28;20026;-66
2022/10/18 00:17:37;;;;;;;10.90;5.10;;;;;;;10.58;100.00;97655.22;4991369;28;20038;-66
2022/10/18 00:20:03;;;;;;;11.90;5.43;;;;;;;10.53;100.00;97658.19;4990111;28;20084;-66
2022/10/18 00:22:28;;;;;;;8.73;5.40;;;;;;;10.42;100.00;97655.13;4992191;28;20063;-67
2022/10/18 00:24:54;;;;;;;11.80;5.10;;;;;;;10.42;100.00;97657.84;4992234;28;20492;-66
2022/10/18 00:27:19;;;;;;;9.20;4.90;;;;;;;10.40;100.00;97657.41;4991517;28;20038;-67
2022/10/18 00:29:45;;;;;;;7.80;5.00;;;;;;;10.27;100.00;97658.50;4982543;28;20034;-67
2022/10/18 00:32:13;;;;;;;13.07;5.00;;;;;;;10.20;100.00;97663.75;4993761;28;20030;-67
2022/10/18 00:34:39;;;;;;;9.35;4.75;;;;;;;10.13;100.00;97664.31;4997114;28;20026;-67
2022/10/18 00:37:05;;;;;;;7.65;4.65;;;;;;;9.99;100.00;97669.31;4994854;28;20033;-67
2022/10/18 00:39:31;;;;;;;12.95;5.60;;;;;;;9.85;100.00;97664.94;4993925;28;20109;-67
2022/10/18 00:41:56;;;;;;;13.88;5.55;;;;;;;9.85;100.00;97662.22;4978240;28;20069;-67
2022/10/18 00:44:25;;;;;;;7.13;4.70;;;;;;;9.99;100.00;97661.88;4989717;28;20034;-67
2022/10/18 00:46:52;;;;;;;7.78;4.80;;;;;;;9.97;100.00;97668.84;4989384;28;20041;-67
2022/10/18 00:49:22;;;;;;;7.20;4.88;;;;;;;9.85;100.00;97666.88;4991686;28;20479;-67
2022/10/18 00:51:55;;;;;;;9.82;5.43;;;;;;;9.72;100.00;97663.28;4991079;28;20041;-68
2022/10/18 00:54:22;;;;;;;17.20;8.93;;;;;;;9.53;100.00;97650.16;4992058;28;20030;-66
2022/10/18 00:56:47;;;;;;;16.80;6.53;;;;;;;9.26;100.00;97648.78;4991770;28;20030;-67
2022/10/18 00:59:14;;;;;;;11.60;5.97;;;;;;;9.02;100.00;97643.97;4982036;28;20034;-67
2022/10/18 01:01:40;;;;;;;12.38;6.70;;;;;;;8.84;100.00;97638.66;4991216;28;20113;-67
2022/10/18 01:04:05;;;;;;;11.48;7.47;;;;;;;8.90;100.00;97645.50;4991567;28;20105;-68
2022/10/18 01:06:36;;;;;;;8.27;6.07;;;;;;;9.08;100.00;97648.91;4989945;28;20415;-67
2022/10/18 01:09:21;;;;;;;14.30;6.07;;;;;;;9.44;100.00;97652.16;4991648;28;20527;-67
2022/10/18 01:11:57;;;;;;;12.65;5.78;;;;;;;9.59;100.00;97648.00;4990428;28;20488;-66
2022/10/18 01:14:22;;;;;;;12.35;6.15;;;;;;;9.67;100.00;97660.78;4981034;28;20022;-67
2022/10/18 01:17:06;;;;;;;13.80;5.90;;;;;;;9.72;100.00;97653.19;4990876;28;20503;-67
2022/10/18 01:19:51;;;;;;;10.82;5.63;;;;;;;9.81;100.00;97664.00;4990477;28;20038;-68
2022/10/18 01:22:25;;;;;;;8.23;5.82;;;;;;;9.90;100.00;97666.66;4991446;28;20030;-67
2022/10/18 01:25:09;;;;;;;12.40;5.50;;;;;;;9.97;100.00;97675.09;4991455;28;20503;-67
2022/10/18 01:27:42;;;;;;;10.18;5.13;;;;;;;10.00;100.00;97670.91;4998846;28;20556;-67
2022/10/18 01:30:36;;;;;;;11.98;4.97;;;;;;;10.05;100.00;97670.69;4987191;28;20038;-67
2022/10/18 01:33:21;;;;;;;8.77;4.97;;;;;;;10.01;100.00;97670.56;4988630;28;20037;-67
2022/10/18 01:35:52;;;;;;;10.43;5.82;;;;;;;9.91;100.00;97671.00;4989576;28;20109;-67
2022/10/18 01:38:19;;;;;;;8.43;5.43;;;;;;;10.00;100.00;97677.19;4989957;28;20484;-67
2022/10/18 01:40:48;;;;;;;6.97;4.97;;;;;;;10.14;100.00;97674.94;4991474;28;20030;-67
2022/10/18 01:43:16;;;;;;;11.52;5.43;;;;;;;10.20;100.00;97667.28;4981512;28;20039;-66
2022/10/18 01:45:42;;;;;;;7.85;4.85;;;;;;;10.09;100.00;97658.72;4990573;28;20034;-67
2022/10/18 01:48:09;;;;;;;17.15;5.40;;;;;;;9.42;100.00;97657.97;4991380;28;20084;-67
2022/10/18 01:50:34;;;;;;;16.00;5.60;;;;;;;9.16;100.00;97660.91;4990119;28;20093;-68
2022/10/18 01:53:01;;;;;;;15.35;7.00;;;;;;;8.97;100.00;97655.91;4991505;28;20479;-69
2022/10/18 01:55:42;;;;;;;12.95;7.43;;;;;;;8.90;100.00;97659.16;4990609;28;20030;-67
2022/10/18 01:58:39;;;;;;;22.77;8.70;;;;;;;9.02;100.00;97660.38;4980216;28;20039;-67
2022/10/18 02:01:21;;;;;;;13.88;8.10;;;;;;;9.03;100.00;97654.56;4990104;28;20357;-67
2022/10/18 02:03:49;;;;;;;21.30;8.43;;;;;;;9.10;100.00;97663.03;4991059;28;20081;-67
2022/10/18 02:06:26;;;;;;;12.45;7.72;;;;;;;9.33;100.00;97665.44;4992415;28;20049;-68
2022/10/18 02:09:11;;;;;;;16.00;7.78;;;;;;;9.36;100.00;97664.75;4994914;28;20030;-67
2022/10/18 02:11:40;;;;;;;11.32;8.02;;;;;;;9.36;100.00;97662.03;4993445;28;20105;-67
2022/10/18 02:14:10;;;;;;;14.13;7.57;;;;;;;9.40;100.00;97670.34;4994629;28;20053;-68
2022/10/18 02:16:48;;;;;;;13.07;7.22;;;;;;;9.46;100.00;97658.09;4993638;28;20034;-67
2022/10/18 02:19:22;;;;;;;13.32;7.35;;;;;;;9.54;100.00;97646.25;4992889;28;20026;-67
2022/10/18 02:21:50;;;;;;;11.93;7.50;;;;;;;9.58;100.00;97652.69;4991596;28;20385;-67
2022/10/18 02:24:18;;;;;;;11.32;7.13;;;;;;;9.75;100.00;97660.69;4991327;28;20117;-67
2022/10/18 02:26:43;;;;;;;14.48;6.63;;;;;;;9.80;100.00;97658.91;4991297;28;20042;-68
2022/10/18 02:29:10;;;;;;;9.55;6.50;;;;;;;9.78;100.00;97664.69;4993928;28;20411;-67
2022/10/18 02:31:47;;;;;;;17.67;6.30;;;;;;;9.90;100.00;97672.94;4994015;28;20030;-67
2022/10/18 02:34:21;;;;;;;10.95;6.28;;;;;;;10.10;100.00;97670.44;4993420;28;20088;-67
2022/10/18 02:36:53;;;;;;;15.05;5.93;;;;;;;10.16;100.00;97671.06;4993516;28;20029;-67
2022/10/18 02:39:24;;;;;;;9.90;4.95;;;;;;;10.15;100.00;97653.81;4991860;28;20036;-67
2022/10/18 02:41:49;;;;;;;11.25;5.18;;;;;;;10.07;100.00;97658.25;4993865;28;20042;-67
2022/10/18 02:44:15;;;;;;;9.18;5.47;;;;;;;10.09;100.00;97661.44;4993958;28;20100;-67
2022/10/18 02:46:41;;;;;;;9.63;5.03;;;;;;;10.23;100.00;97672.09;4993275;28;20038;-67
2022/10/18 02:49:06;;;;;;;11.43;5.20;;;;;;;10.16;100.00;97665.59;4997193;28;20065;-67
2022/10/18 02:51:32;;;;;;;14.40;4.90;;;;;;;10.11;100.00;97661.91;5008100;28;20026;-68
2022/10/18 02:53:57;;;;;;;8.65;4.90;;;;;;;10.21;100.00;97671.63;5007282;28;20034;-67
2022/10/18 02:56:23;;;;;;;11.02;5.00;;;;;;;10.36;100.00;97674.88;5000214;28;20037;-67
2022/10/18 02:58:48;;;;;;;11.20;4.75;;;;;;;10.52;100.00;97664.84;5001725;28;20049;-70
2022/10/18 03:01:14;;;;;;;13.63;5.90;;;;;;;10.43;100.00;97667.69;4995813;28;20038;-67
2022/10/18 03:03:39;;;;;;;15.32;4.70;;;;;;;10.37;100.00;97668.25;4991198;28;20054;-67
2022/10/18 03:06:04;;;;;;;12.52;5.10;;;;;;;10.30;100.00;97669.59;4990998;28;20031;-68
2022/10/18 03:08:30;;;;;;;9.93;5.05;;;;;;;10.34;100.00;97683.44;4991441;28;20118;-68
2022/10/18 03:10:55;;;;;;;10.43;5.40;;;;;;;10.43;100.00;97680.59;4993827;28;20062;-68
2022/10/18 03:13:21;;;;;;;9.23;5.10;;;;;;;10.40;100.00;97684.78;4992322;28;20038;-71
2022/10/18 03:15:47;;;;;;;9.65;4.43;;;;;;;10.33;100.00;97690.03;4992386;28;20104;-68
2022/10/18 03:18:13;;;;;;;13.38;6.03;;;;;;;10.22;100.00;97692.38;4986183;28;20041;-68
2022/10/18 03:20:39;;;;;;;12.88;5.90;;;;;;;10.16;100.00;97682.00;5000457;28;20038;-68
2022/10/18 03:23:06;;;;;;;9.50;5.72;;;;;;;9.82;100.00;97682.03;4998620;28;20030;-67
2022/10/18 03:25:32;;;;;;;14.70;7.00;;;;;;;9.78;100.00;97678.38;4997882;28;20034;-67
2022/10/18 03:27:58;;;;;;;9.73;5.82;;;;;;;9.81;100.00;97682.38;4997208;28;20440;-67
2022/10/18 03:30:23;;;;;;;10.35;6.15;;;;;;;9.85;100.00;97680.53;4985303;28;20022;-68
2022/10/18 03:32:49;;;;;;;13.25;6.65;;;;;;;9.97;100.00;97680.59;4991765;28;20137;-68
2022/10/18 03:35:14;;;;;;;8.80;5.68;;;;;;;10.11;100.00;97677.53;4993311;28;20062;-67
2022/10/18 03:37:40;;;;;;;7.85;5.15;;;;;;;10.18;100.00;97679.72;4992415;28;20026;-67
2022/10/18 03:40:06;;;;;;;12.88;6.15;;;;;;;10.23;100.00;97674.03;4991565;28;20490;-67
2022/10/18 03:42:31;;;;;;;15.38;6.70;;;;;;;10.23;100.00;97674.03;4986137;28;20480;-68
2022/10/18 03:44:57;;;;;;;13.63;7.57;;;;;;;10.25;100.00;97666.28;4989587;28;20080;-68
2022/10/18 03:47:22;;;;;;;13.20;7.03;;;;;;;10.27;100.00;97669.47;4992276;28;20065;-68
2022/10/18 03:49:48;;;;;;;10.70;5.82;;;;;;;10.35;100.00;97673.25;4992088;28;20069;-67
2022/10/18 03:52:13;;;;;;;13.07;6.13;;;;;;;10.34;100.00;97672.47;4983719;28;20117;-67
2022/10/18 03:54:38;;;;;;;12.57;5.50;;;;;;;10.29;100.00;97675.41;4977465;28;20069;-67
2022/10/18 03:57:04;;;;;;;18.15;6.25;;;;;;;10.33;100.00;97671.69;4994431;28;20089;-67
2022/10/18 03:59:29;;;;;;;10.52;5.43;;;;;;;10.28;100.00;97679.25;4994043;28;20064;-67
2022/10/18 04:01:55;;;;;;;14.57;5.38;;;;;;;10.23;100.00;97677.56;4992337;28;20500;-67
2022/10/18 04:04:20;;;;;;;11.75;5.03;;;;;;;10.12;100.00;97679.16;4991367;28;20034;-67
2022/10/18 04:06:46;;;;;;;18.73;6.15;;;;;;;10.12;100.00;97679.16;4991649;28;20057;-65
2022/10/18 04:09:11;;;;;;;11.63;4.95;;;;;;;10.10;100.00;97687.69;4991381;28;20038;-67
2022/10/18 04:11:37;;;;;;;9.48;5.55;;;;;;;10.03;100.00;97683.91;4991572;28;20510;-67
2022/10/18 04:14:03;;;;;;;12.13;5.07;;;;;;;9.97;100.00;97680.59;4982729;28;20416;-67
2022/10/18 04:16:28;;;;;;;11.65;5.50;;;;;;;10.02;100.00;97676.84;4984625;28;20039;-67
2022/10/18 04:18:53;;;;;;;9.32;5.35;;;;;;;10.01;100.00;97677.97;4992936;28;20030;-67
2022/10/18 04:21:19;;;;;;;9.82;5.50;;;;;;;10.07;100.00;97674.69;4992296;28;20041;-67
2022/10/18 04:23:48;;;;;;;11.70;4.70;;;;;;;10.11;100.00;97674.81;4989986;28;20038;-67
2022/10/18 04:26:15;;;;;;;14.02;5.53;;;;;;;10.03;100.00;97679.25;4996303;28;20045;-67
2022/10/18 04:28:41;;;;;;;9.82;5.00;;;;;;;9.95;100.00;97677.38;5001601;28;20854;-67
2022/10/18 04:31:07;;;;;;;12.57;5.85;;;;;;;9.85;100.00;97675.06;4991026;28;20080;-67
2022/10/18 04:33:32;;;;;;;14.60;5.97;;;;;;;9.76;100.00;97678.72;4974601;28;20046;-67
2022/10/18 04:35:58;;;;;;;29.98;13.55;;;;;;;9.76;100.00;97686.91;4990101;28;20030;-66
2022/10/18 04:38:24;;;;;;;22.45;12.13;;;;;;;9.91;100.00;97701.09;4989946;28;20030;-66
2022/10/18 04:40:49;;;;;;;19.35;6.88;;;;;;;10.03;100.00;97697.59;4990914;28;20480;-66
2022/10/18 04:43:15;;;;;;;15.60;5.85;;;;;;;10.17;100.00;97710.97;4992289;28;20034;-66
2022/10/18 04:45:40;;;;;;;12.20;5.68;;;;;;;10.12;100.00;97706.53;4991196;28;20030;-66
2022/10/18 04:48:07;;;;;;;9.07;4.82;;;;;;;10.08;100.00;97700.94;4991929;28;20794;-64
2022/10/18 04:50:33;;;;;;;10.90;5.35;;;;;;;10.07;100.00;97695.78;4990840;28;20064;-65
2022/10/18 04:52:58;;;;;;;11.70;5.50;;;;;;;10.09;100.00;97699.78;4981689;28;20054;-65
2022/10/18 04:55:24;;;;;;;10.82;5.20;;;;;;;9.98;100.00;97703.28;4991461;28;20180;-66
2022/10/18 04:57:49;;;;;;;14.30;6.22;;;;;;;9.63;100.00;97696.19;4990326;28;20034;-68
2022/10/18 05:00:14;;;;;;;15.98;6.75;;;;;;;9.53;100.00;97691.16;4993863;28;20038;-66
2022/10/18 05:02:40;;;;;;;11.82;5.60;;;;;;;9.61;100.00;97693.00;4988300;28;20069;-68
2022/10/18 05:05:05;;;;;;;12.15;5.45;;;;;;;9.77;100.00;97687.72;4990116;28;20022;-68
2022/10/18 05:07:31;;;;;;;19.38;6.28;;;;;;;9.88;100.00;97685.34;4986848;28;20518;-68
2022/10/18 05:09:56;;;;;;;8.60;5.20;;;;;;;9.90;100.00;97683.06;4990215;28;20458;-68
2022/10/18 05:12:22;;;;;;;12.85;5.50;;;;;;;9.87;100.00;97690.03;4990397;28;20114;-68
2022/10/18 05:14:47;;;;;;;9.35;5.78;;;;;;;9.86;100.00;97693.09;4991818;28;20101;-68
2022/10/18 05:17:13;;;;;;;11.63;6.15;;;;;;;9.86;100.00;97693.09;4991055;28;20109;-68
2022/10/18 05:19:38;;;;;;;20.13;6.20;;;;;;;9.90;100.00;97707.69;4991736;28;20034;-68
2022/10/18 05:22:04;;;;;;;12.10;7.45;;;;;;;9.93;100.00;97696.09;4988394;28;20030;-67
2022/10/18 05:24:29;;;;;;;21.23;7.35;;;;;;;9.92;100.00;97702.69;4991411;28;20488;-67
2022/10/18 05:26:55;;;;;;;19.70;7.22;;;;;;;9.92;100.00;97710.91;4990648;28;20396;-67
2022/10/18 05:29:20;;;;;;;15.98;8.15;;;;;;;9.80;100.00;97706.19;4991439;28;20030;-67
2022/10/18 05:31:47;;;;;;;13.20;7.40;;;;;;;9.63;100.00;97703.63;4991278;28;20053;-67
2022/10/18 05:34:12;;;;;;;14.48;7.75;;;;;;;9.51;100.00;97705.16;4990185;28;20113;-68
2022/10/18 05:36:38;;;;;;;12.95;6.75;;;;;;;9.67;100.00;97704.53;4988101;28;20574;-66
2022/10/18 05:39:04;;;;;;;14.93;6.57;;;;;;;9.87;100.00;97697.44;4981180;28;20046;-66
2022/10/18 05:41:29;;;;;;;13.00;7.32;;;;;;;10.00;100.00;97693.59;4995280;28;20077;-66
2022/10/18 05:43:55;;;;;;;13.30;6.65;;;;;;;10.11;100.00;97693.97;4995368;28;20062;-66
2022/10/18 05:46:20;;;;;;;8.38;5.90;;;;;;;10.01;100.00;97697.13;4994560;28;20476;-67
2022/10/18 05:48:50;;;;;;;13.50;6.72;;;;;;;10.16;100.00;97696.50;4995188;28;20031;-67
2022/10/18 05:51:16;;;;;;;;;;;;;;;10.27;100.00;97705.06;4995084;28;20299;-67
2022/10/18 05:53:42;;;;;;;12.40;5.57;;;;;;;10.25;100.00;97705.41;4993808;28;19921;-67
2022/10/18 05:56:08;;;;;;;15.05;6.57;;;;;;;10.40;100.00;97714.91;4993512;28;20057;-67
2022/10/18 05:58:34;;;;;;;13.27;6.60;;;;;;;10.51;100.00;97716.09;5007426;28;20390;-67
2022/10/18 06:01:01;;;;;;;15.48;7.53;;;;;;;10.41;100.00;97715.72;4997966;28;20042;-67
2022/10/18 06:03:27;;;;;;;12.43;7.25;;;;;;;10.38;100.00;97713.66;4995516;28;20052;-67
2022/10/18 06:05:57;;;;;;;13.70;7.35;;;;;;;10.31;100.00;97708.75;4995629;28;20030;-68
2022/10/18 06:08:22;;;;;;;38.20;9.95;;;;;;;10.26;100.00;97712.50;4990255;28;20118;-67
2022/10/18 06:10:48;;;;;;;48.30;11.60;;;;;;;10.13;100.00;97710.84;4995557;28;20058;-68
2022/10/18 06:13:13;;;;;;;125.55;20.02;;;;;;;10.11;100.00;97721.34;4995918;28;20403;-67
2022/10/18 06:15:39;;;;;;;83.55;14.85;;;;;;;10.22;100.00;97727.19;4987260;28;20042;-67
2022/10/18 06:18:04;;;;;;;47.08;12.10;;;;;;;10.28;100.00;97723.91;4982390;28;20428;-66
2022/10/18 06:20:29;;;;;;;30.85;10.57;;;;;;;10.23;100.00;97731.53;4994403;28;20034;-66
2022/10/18 06:22:55;;;;;;;48.03;11.77;;;;;;;10.17;100.00;97732.88;4994474;28;20041;-66
2022/10/18 06:25:20;;;;;;;49.40;10.18;;;;;;;10.21;100.00;97728.31;4984727;28;20022;-66
2022/10/18 06:27:45;;;;;;;33.75;9.68;;;;;;;10.25;100.00;97726.50;4984605;28;20057;-68
2022/10/18 06:30:11;;;;;;;27.95;8.00;;;;;;;10.23;100.00;97734.28;4977643;28;20054;-67
2022/10/18 06:32:36;;;;;;;29.23;7.97;;;;;;;10.29;100.00;97744.66;4985175;28;20501;-67
2022/10/18 06:35:02;;;;;;;22.20;7.75;;;;;;;10.35;100.00;97739.78;4982979;28;20077;-67
2022/10/18 06:37:29;;;;;;;38.00;15.93;;;;;;;10.48;100.00;97733.19;4983417;28;20046;-67
2022/10/18 06:39:54;;;;;;;56.33;44.75;;;;;;;10.42;100.00;97728.28;4986365;28;20042;-66
2022/10/18 06:42:19;;;;;;;23.05;10.05;;;;;;;10.57;100.00;97724.06;4979730;28;20381;-66
2022/10/18 06:44:46;;;;;;;20.23;8.15;;;;;;;10.77;100.00;97730.56;4985208;28;20523;-65
2022/10/18 06:47:12;;;;;;;16.30;7.65;;;;;;;10.82;100.00;97733.91;4980900;28;20646;-66
2022/10/18 06:49:37;;;;;;;20.27;8.10;;;;;;;10.68;100.00;97745.19;4981202;28;20053;-67
2022/10/18 06:52:03;;;;;;;14.90;8.30;;;;;;;10.69;100.00;97737.75;4981846;28;20065;-68
2022/10/18 06:54:28;;;;;;;18.98;12.77;;;;;;;10.92;100.00;97731.84;4982477;28;20053;-68
2022/10/18 06:56:56;;;;;;;21.52;12.90;;;;;;;11.82;100.00;97736.06;4982573;28;20047;-67
2022/10/18 06:59:21;;;;;;;16.30;8.65;;;;;;;12.48;100.00;97735.88;4975977;28;20089;-67
2022/10/18 07:01:47;;;;;;;16.35;8.18;;;;;;;13.61;100.00;97749.13;4984458;28;20508;-68
2022/10/18 07:04:12;;;;;;;7.85;5.20;;;;;;;14.91;100.00;97750.41;4979736;28;20068;-67
2022/10/18 07:06:37;;;;;;;10.60;5.10;;;;;;;15.67;100.00;97757.81;4983071;28;20435;-66
2022/10/18 07:09:03;;;;;;;9.63;5.20;;;;;;;16.16;100.00;97759.59;4982353;28;20088;-67
2022/10/18 07:11:29;;;;;;;14.25;4.80;;;;;;;16.31;100.00;97765.28;4982718;28;20053;-68
2022/10/18 07:14:03;;;;;;;7.97;4.65;;;;;;;16.84;100.00;97765.03;4985804;28;20069;-67
2022/10/18 07:16:30;;;;;;;9.02;4.70;;;;;;;17.19;100.00;97769.25;4980525;28;20071;-67
2022/10/18 07:18:55;;;;;;;15.63;4.45;;;;;;;17.50;100.00;97775.41;4991209;28;20046;-66
2022/10/18 07:21:23;;;;;;;9.77;4.20;;;;;;;17.73;100.00;97777.91;4981179;28;20045;-67
2022/10/18 07:23:50;;;;;;;8.98;3.95;;;;;;;18.72;97.06;97773.09;4983800;28;20046;-67
2022/10/18 07:26:17;;;;;;;12.15;4.07;;;;;;;19.09;91.96;97777.53;4979058;28;20069;-67
2022/10/18 07:28:45;;;;;;;8.82;4.45;;;;;;;18.80;93.36;97774.72;4985544;28;20046;-68
2022/10/18 07:31:12;;;;;;;12.00;4.63;;;;;;;18.71;95.02;97779.84;4977182;28;20053;-67
2022/10/18 07:33:37;;;;;;;8.15;4.68;;;;;;;18.70;97.43;97775.47;4963921;28;20038;-67
2022/10/18 07:36:05;;;;;;;11.25;5.75;;;;;;;19.08;94.06;97782.25;4960078;28;20071;-67
2022/10/18 07:38:31;;;;;;;14.45;6.18;;;;;;;19.45;93.61;97783.06;4963087;28;20432;-67
2022/10/18 07:41:01;;;;;;;10.40;6.43;;;;;;;19.65;92.38;97773.06;4964348;28;20073;-67
2022/10/18 07:43:27;;;;;;;14.25;5.75;;;;;;;20.76;84.58;97773.78;4961800;28;20046;-68
2022/10/18 07:45:58;;;;;;;10.73;4.90;;;;;;;21.51;80.33;97780.75;4979878;28;20416;-67
2022/10/18 07:48:24;;;;;;;11.48;5.32;;;;;;;21.63;74.22;97771.09;4974834;28;20472;-67
2022/10/18 07:50:50;;;;;;;19.05;6.50;;;;;;;21.79;75.51;97776.88;4983619;28;20042;-67
2022/10/18 07:53:15;;;;;;;15.95;5.50;;;;;;;21.88;74.00;97770.81;4979193;28;20049;-67
2022/10/18 07:55:42;;;;;;;13.52;6.05;;;;;;;21.59;76.14;97773.91;4979565;28;20133;-67
2022/10/18 07:58:07;;;;;;;10.50;4.88;;;;;;;21.28;80.08;97773.75;4976453;28;20465;-67
2022/10/18 08:00:33;;;;;;;12.45;5.88;;;;;;;20.92;83.25;97765.75;4980731;28;20082;-68
2022/10/18 08:03:00;;;;;;;10.90;6.15;;;;;;;21.59;77.30;97765.56;4982140;28;20523;-67
2022/10/18 08:05:27;;;;;;;10.80;5.60;;;;;;;21.16;80.80;97763.16;4977966;28;20507;-68
2022/10/18 08:07:53;;;;;;;12.20;5.57;;;;;;;21.08;81.94;97767.97;4983623;28;20054;-67
2022/10/18 08:10:20;;;;;;;11.98;5.32;;;;;;;22.28;74.56;97765.56;4983091;28;20110;-67
2022/10/18 08:12:46;;;;;;;13.52;5.32;;;;;;;22.81;71.16;97766.00;4975306;28;20133;-67
2022/10/18 08:15:12;;;;;;;9.20;5.28;;;;;;;22.71;71.57;97767.75;4975376;28;20136;-66
2022/10/18 08:17:37;;;;;;;9.35;5.28;;;;;;;22.62;72.52;97779.44;4981283;28;20105;-68
2022/10/18 08:20:04;;;;;;;9.45;4.88;;;;;;;22.89;72.99;97775.84;4980279;28;20042;-68
2022/10/18 08:22:30;;;;;;;11.15;5.32;;;;;;;22.75;72.94;97776.06;4980685;28;20050;-68
2022/10/18 08:24:56;;;;;;;10.60;5.97;;;;;;;22.96;71.83;97775.75;4979199;28;20045;-67
2022/10/18 08:27:23;;;;;;;15.27;8.30;;;;;;;23.11;70.19;97775.53;4975165;28;20144;-68
2022/10/18 08:29:49;;;;;;;13.15;5.95;;;;;;;22.95;73.13;97774.16;4982885;28;20046;-66
2022/10/18 08:32:14;;;;;;;10.75;5.50;;;;;;;22.85;72.17;97773.13;4977993;28;20045;-67
2022/10/18 08:34:40;;;;;;;12.48;5.65;;;;;;;22.36;74.60;97775.41;4980250;28;20468;-68
2022/10/18 08:37:05;;;;;;;8.25;5.03;;;;;;;23.18;71.73;97776.19;4975273;28;20514;-68
2022/10/18 08:39:31;;;;;;;10.02;4.68;;;;;;;23.50;68.21;97788.84;4975584;28;20038;-68
2022/10/18 08:42:16;;;;;;;11.27;5.00;;;;;;;23.87;68.66;97784.19;4970443;28;20158;-68
2022/10/18 08:44:47;;;;;;;14.68;5.60;;;;;;;24.41;64.39;97783.84;4981607;28;20069;-67
2022/10/18 08:47:37;;;;;;;11.77;5.05;;;;;;;23.79;66.43;97785.50;4984349;28;20047;-66
2022/10/18 08:50:29;;;;;;;9.07;4.72;;;;;;;23.74;67.16;97789.59;4989263;28;20052;-68
2022/10/18 08:53:19;;;;;;;11.82;5.20;;;;;;;24.14;65.90;97781.22;4977834;28;20038;-66
2022/10/18 08:55:51;;;;;;;10.20;4.85;;;;;;;24.52;64.76;97788.44;4984632;28;20046;-66
2022/10/18 08:58:25;;;;;;;6.72;4.60;;;;;;;24.87;61.12;97789.69;4979826;28;20050;-66
2022/10/18 09:00:50;;;;;;;15.80;4.97;;;;;;;25.23;61.25;97790.81;4994712;28;20050;-66
2022/10/18 09:04:01;;;;;;;12.37;5.03;;;;;;;25.27;60.22;97788.75;4975432;28;20049;-67
2022/10/18 09:06:39;;;;;;;10.20;4.95;;;;;;;25.72;58.20;97779.56;4970541;28;20290;-67
2022/10/18 09:09:17;;;;;;;8.25;5.40;;;;;;;25.45;56.64;97780.66;4959458;28;20046;-67
2022/10/18 09:11:51;;;;;;;11.05;4.93;;;;;;;25.02;56.73;97772.53;4979984;28;20158;-68
2022/10/18 09:14:33;;;;;;;10.70;5.78;;;;;;;22.96;65.50;97772.94;4975890;28;20097;-67
2022/10/18 09:17:28;;;;;;;10.30;5.63;;;;;;;22.25;72.41;97774.72;4979841;28;20042;-67
2022/10/18 09:20:23;;;;;;;12.40;4.90;;;;;;;24.09;65.67;97764.16;4979948;28;20042;-68
2022/10/18 09:23:04;;;;;;;7.78;4.32;;;;;;;23.66;65.29;97763.78;4981827;28;20255;-67
2022/10/18 09:25:40;;;;;;;12.52;6.63;;;;;;;23.47;66.09;97764.53;4971103;28;20057;-67
2022/10/18 09:28:25;;;;;;;16.50;5.00;;;;;;;23.42;66.01;97767.81;4977448;28;20046;-66
2022/10/18 09:31:04;;;;;;;9.93;5.07;;;;;;;25.25;59.65;97783.59;4982623;28;20148;-67
2022/10/18 09:33:44;;;;;;;6.68;4.35;;;;;;;25.77;55.87;97779.03;4981822;28;20042;-66
2022/10/18 09:36:16;;;;;;;7.57;4.05;;;;;;;24.83;59.98;97771.38;4975817;28;20043;-67
2022/10/18 09:38:47;;;;;;;10.07;4.18;;;;;;;25.89;56.96;97772.69;4980998;28;20050;-67
2022/10/18 09:41:20;;;;;;;9.73;4.20;;;;;;;25.96;55.36;97766.09;4977432;28;20519;-66
2022/10/18 09:43:55;;;;;;;10.23;4.95;;;;;;;26.59;54.37;97758.22;4985451;28;20046;-66
2022/10/18 09:46:25;;;;;;;9.63;4.60;;;;;;;26.16;54.32;97754.69;4991666;28;20134;-67
2022/10/18 09:49:20;;;;;;;14.77;6.38;;;;;;;25.52;57.00;97752.44;4981980;28;20058;-67
2022/10/18 09:51:48;;;;;;;26.60;14.55;;;;;;;25.40;58.65;97761.56;4937857;28;20062;-68
2022/10/18 09:54:42;;;;;;;11.77;4.88;;;;;;;24.67;58.78;97753.31;4937761;28;20050;-68
2022/10/18 09:57:30;;;;;;;6.90;4.65;;;;;;;24.07;64.92;97744.22;4963484;28;20145;-66
2022/10/18 09:59:58;;;;;;;8.25;4.20;;;;;;;24.56;63.00;97747.97;4978134;28;20376;-68
2022/10/18 10:02:24;;;;;;;7.10;4.23;;;;;;;25.51;57.31;97741.66;4978500;28;20513;-68
2022/10/18 10:04:53;;;;;;;13.70;4.55;;;;;;;24.59;62.28;97746.31;4963935;28;20492;-68
2022/10/18 10:07:25;;;;;;;9.50;4.30;;;;;;;25.83;56.49;97745.59;4955912;28;20058;-67
2022/10/18 10:09:57;;;;;;;9.60;3.95;;;;;;;25.96;54.26;97754.88;4961893;28;20050;-67
2022/10/18 10:12:31;;;;;;;9.90;4.55;;;;;;;26.62;54.16;97755.34;4957507;28;20055;-67
2022/10/18 10:15:26;;;;;;;10.07;4.20;;;;;;;25.93;55.53;97750.94;4962785;28;20035;-67
2022/10/18 10:18:00;;;;;;;9.38;4.40;;;;;;;25.71;57.12;97755.53;4964836;28;20045;-65
2022/10/18 10:20:35;;;;;;;8.85;3.92;;;;;;;25.76;56.36;97764.19;4977478;28;20256;-65
2022/10/18 10:23:06;;;;;;;8.90;4.35;;;;;;;24.50;60.49;97757.28;4980828;28;20488;-66
2022/10/18 10:25:34;;;;;;;8.55;4.03;;;;;;;23.17;67.87;97749.47;4972223;28;20105;-65
2022/10/18 10:28:10;;;;;;;9.93;4.03;;;;;;;23.88;67.37;97755.00;4987255;28;20050;-65
2022/10/18 10:30:37;;;;;;;8.57;3.92;;;;;;;25.60;59.85;97744.59;4990508;28;20125;-66
2022/10/18 10:33:04;;;;;;;10.25;3.50;;;;;;;26.09;56.31;97752.09;4983226;28;20053;-66
2022/10/18 10:35:38;;;;;;;11.15;4.65;;;;;;;25.71;60.85;97742.31;4981358;28;20526;-66
2022/10/18 10:38:04;;;;;;;18.10;4.57;;;;;;;25.67;61.63;97733.19;4981567;28;20432;-66
2022/10/18 10:40:39;;;;;;;17.73;5.05;;;;;;;25.34;62.39;97732.50;4976799;28;20043;-66
2022/10/18 10:43:15;;;;;;;7.72;4.55;;;;;;;24.79;65.73;97730.22;4978301;28;20085;-66
2022/10/18 10:46:01;;;;;;;9.30;5.15;;;;;;;24.92;65.92;97729.50;4984583;28;20054;-67
2022/10/18 10:48:30;;;;;;;9.43;3.70;;;;;;;24.84;64.55;97730.94;4979767;28;20050;-66
2022/10/18 10:51:09;;;;;;;;;;;;;;;25.15;64.70;97722.94;4985221;28;20050;-66
2022/10/18 10:53:51;;;;;;;11.18;4.13;;;;;;;24.94;64.71;97724.28;4998649;28;19918;-66
2022/10/18 10:56:24;;;;;;;9.50;3.78;;;;;;;24.96;66.45;97725.41;4968668;28;20055;-66
2022/10/18 10:58:51;;;;;;;11.75;4.10;;;;;;;25.16;66.31;97725.31;5000177;28;20069;-66
2022/10/18 11:01:31;;;;;;;6.93;3.45;;;;;;;25.74;63.95;97724.56;4998163;28;20590;-66
2022/10/18 11:04:00;;;;;;;8.35;4.28;;;;;;;24.95;66.04;97723.03;4995188;28;20057;-66
2022/10/18 11:06:39;;;;;;;9.67;3.27;;;;;;;25.23;65.48;97720.72;4979927;28;20050;-66
2022/10/18 11:09:11;;;;;;;;;;;;;;;25.24;63.35;97711.09;4979970;28;20046;-65
2022/10/18 11:11:45;;;;;;;9.98;4.07;;;;;;;25.13;64.02;97694.56;4994627;28;19917;-66
2022/10/18 11:14:26;;;;;;;8.20;4.10;;;;;;;25.49;63.71;97704.84;4998916;28;20073;-66
2022/10/18 11:17:28;;;;;;;7.68;4.68;;;;;;;24.92;65.39;97702.28;4998174;28;20099;-67
2022/10/18 11:20:00;;;;;;;8.57;5.45;;;;;;;24.31;67.06;97702.91;4979757;28;20176;-67
2022/10/18 11:22:28;;;;;;;7.38;5.00;;;;;;;24.41;67.73;97696.28;4959842;28;20109;-69
2022/10/18 11:24:54;;;;;;;18.25;5.90;;;;;;;24.39;66.12;97699.50;4967960;28;20038;-67
2022/10/18 11:28:00;;;;;;;30.60;7.10;;;;;;;24.09;69.77;97689.38;4984510;28;20050;-66
2022/10/18 11:30:44;;;;;;;8.63;5.80;;;;;;;24.50;67.23;97682.47;4980028;28;20042;-66
2022/10/18 11:33:23;;;;;;;10.43;5.97;;;;;;;24.16;68.20;97682.84;4980681;28;20046;-65
2022/10/18 11:36:05;;;;;;;7.28;5.70;;;;;;;23.74;70.66;97680.50;4983549;28;20077;-65